Etusivu
METAR-TAF:

METAR-TAF

Lentoasemat :

Tukholma-Arlanda, Ruotsi

Arlandan kansainvälinen lentoasema

Leveyspiiri: 59-39N, Pituuspiiri: 017-57E, korkeus merenpinnasta: 38 m

Tämänhetkinen sää

Tämä raportti tehtiin 35 minuuttia sitten, kello 14.20 UTC
Tuuli 10 kn etelästä
Lämpötila 5°C
Kosteus 87%
Ilmanpaine 1002 hPa
Näkyvyys 10 km tai enemmän
Muutamia pilviä 2200 ft:n korkeudessa

METAR: ESSA 241420Z 19010KT 9999 FEW022 05/03 Q1002 R01L/29//95 R01R/29//95 R08/29//95 NOSIG

Aika: 15:55 (14:55 UTC)

Sääennuste

Tämä raportti tehtiin 3 tuntia ja 25 minuuttia sitten, kello 11.30 UTC
Ennuste voimassa 24. päivästä klo 12 UTC - 25. päivään klo 12 UTC
Tuuli 12 kn etelästä/lounaasta
Näkyvyys 10 km tai enemmän
ei pilviä alle 1500 m:ssä eikä cumulonimbus-pilviä
Todennäköisyys 40%
25. päivästä klo 03 UTC - 25. päivään klo 12 UTC
Hajonneita pilviä 400 ft:n korkeudessa

TAF: ESSA 241130Z 2412/2512 20012KT CAVOK PROB40 2503/2512 BKN004

Säähavainnot ja -ennusteet yli 4000 lentoasemalta (METAR- ja TAF-raportit).

Käytössä olevat sääasemat on merkitty karttaan keltaisilla ja punaisilla pisteillä.

Aseta hiiri pisteen päälle nähdäksesi sääaseman nimen.

Klikkaa sitten nähdäksesi säähavainnot ja -ennusteet.

Kartan vaihtaminen: klikkaa mustalla rastilla varustettuja vihreitä pisteitä, niin voit zoomata sisään; viivalla varustettua vihreää pistettä, niin voit zoomata ulos tai vihreitä nuolia, niin pääset viereisille kartoille.


METAR-TAF: